Time;durP1;ratioP1;P1;durP2;ratioP2;P2;SDS_P1;SDS_P2;PMS_P1;PMS_P2;Temp;Humidity;BMP_temperature;BMP_pressure;BME280_temperature;BME280_humidity;BME280_pressure;Samples;Min_cycle;Max_cycle;Signal;HPM_P1;HPM_P2
2021/07/01 00:01:58;;;;;;;28.60;13.07;;;14.30;99.90;;;;;;5091780;28;20402;-63
2021/07/01 00:04:24;;;;;;;24.25;12.02;;;14.30;99.90;;;;;;5092055;28;20037;-63
2021/07/01 00:06:50;;;;;;;31.13;11.38;;;14.30;99.90;;;;;;5092141;28;20036;-63
2021/07/01 00:09:19;;;;;;;21.10;11.35;;;14.30;99.90;;;;;;5092043;28;20152;-63
2021/07/01 00:11:46;;;;;;;29.88;11.88;;;14.30;99.90;;;;;;5092093;28;20032;-63
2021/07/01 00:14:16;;;;;;;23.45;11.15;;;14.30;99.90;;;;;;5091875;28;20036;-63
2021/07/01 00:16:42;;;;;;;24.50;10.18;;;14.30;99.90;;;;;;5092067;28;20040;-63
2021/07/01 00:19:08;;;;;;;25.70;12.82;;;14.30;99.90;;;;;;5091759;28;20080;-63
2021/07/01 00:21:34;;;;;;;21.95;11.27;;;14.30;99.90;;;;;;5091909;28;20491;-63
2021/07/01 00:24:00;;;;;;;22.90;11.45;;;14.20;99.90;;;;;;5091725;28;20404;-63
2021/07/01 00:26:25;;;;;;;21.75;12.00;;;14.30;99.90;;;;;;5075075;28;20049;-63
2021/07/01 00:28:51;;;;;;;22.05;10.95;;;14.30;99.90;;;;;;5071431;28;20038;-63
2021/07/01 00:31:17;;;;;;;25.33;11.73;;;14.30;99.90;;;;;;5071402;28;20520;-63
2021/07/01 00:33:42;;;;;;;27.92;11.75;;;14.30;99.90;;;;;;5071291;28;20098;-63
2021/07/01 00:36:09;;;;;;;24.70;12.82;;;14.30;99.90;;;;;;5071430;28;20040;-63
2021/07/01 00:38:34;;;;;;;24.45;12.38;;;14.30;99.90;;;;;;5053280;28;20316;-63
2021/07/01 00:41:00;;;;;;;25.45;11.70;;;14.20;99.90;;;;;;5071258;28;20115;-63
2021/07/01 00:43:26;;;;;;;22.50;12.48;;;14.20;99.90;;;;;;5071115;28;20040;-63
2021/07/01 00:45:52;;;;;;;25.42;12.65;;;14.20;99.90;;;;;;5053215;28;20044;-63
2021/07/01 00:48:18;;;;;;;26.27;11.82;;;14.20;99.90;;;;;;5071028;28;20543;-63
2021/07/01 00:50:45;;;;;;;27.08;13.40;;;14.20;99.90;;;;;;5070991;28;20040;-63
2021/07/01 00:53:10;;;;;;;24.10;12.30;;;14.20;99.90;;;;;;5071129;28;20040;-63
2021/07/01 00:55:37;;;;;;;24.63;12.45;;;14.20;99.90;;;;;;5070652;28;20138;-63
2021/07/01 00:58:03;;;;;;;24.92;11.63;;;14.20;99.90;;;;;;5071029;28;20478;-63
2021/07/01 01:00:46;;;;;;;23.23;11.98;;;14.20;99.90;;;;;;5052849;28;20089;-63
2021/07/01 01:03:11;;;;;;;25.65;11.18;;;14.20;99.90;;;;;;5070957;28;20470;-63
2021/07/01 01:05:37;;;;;;;26.30;12.05;;;14.20;99.90;;;;;;5053536;28;20032;-63
2021/07/01 01:08:03;;;;;;;23.48;11.27;;;14.30;99.90;;;;;;5070888;28;20085;-63
2021/07/01 01:10:29;;;;;;;28.13;12.60;;;14.30;99.90;;;;;;5070516;28;20055;-63
2021/07/01 01:12:54;;;;;;;28.70;11.20;;;14.30;99.90;;;;;;5070039;28;20037;-63
2021/07/01 01:15:20;;;;;;;23.60;12.38;;;14.20;99.90;;;;;;5070476;28;20044;-63
2021/07/01 01:17:46;;;;;;;29.13;13.18;;;14.20;99.90;;;;;;5070623;28;20131;-63
2021/07/01 01:20:14;;;;;;;25.50;13.07;;;14.20;99.90;;;;;;5070482;28;20119;-63
2021/07/01 01:22:40;;;;;;;27.70;11.68;;;14.20;99.90;;;;;;5070600;28;20579;-63
2021/07/01 01:25:06;;;;;;;24.45;12.63;;;14.20;99.90;;;;;;5075753;28;20067;-63
2021/07/01 01:27:32;;;;;;;24.30;12.10;;;14.10;99.90;;;;;;5090590;28;20528;-63
2021/07/01 01:29:58;;;;;;;24.25;12.30;;;14.20;99.90;;;;;;5090506;28;20051;-63
2021/07/01 01:32:23;;;;;;;23.25;13.15;;;14.10;99.90;;;;;;5090625;28;20488;-63
2021/07/01 01:34:49;;;;;;;25.40;12.98;;;14.10;99.90;;;;;;5090499;28;20068;-63
2021/07/01 01:37:15;;;;;;;25.73;11.82;;;14.10;99.90;;;;;;5090717;28;20431;-63
2021/07/01 01:39:47;;;;;;;24.17;12.38;;;14.20;99.90;;;;;;5090886;28;20032;-63
2021/07/01 01:42:12;;;;;;;24.77;12.50;;;14.20;99.90;;;;;;5090476;28;20032;-63
2021/07/01 01:44:38;;;;;;;25.38;13.23;;;14.20;99.90;;;;;;5090648;28;20044;-63
2021/07/01 01:47:14;;;;;;;22.77;13.13;;;14.20;99.90;;;;;;5090345;28;20533;-63
2021/07/01 01:49:46;;;;;;;20.48;12.30;;;14.10;99.90;;;;;;5090419;28;20040;-63
2021/07/01 01:52:11;;;;;;;;;;;14.10;99.90;;;;;;5090840;28;20040;-63
2021/07/01 01:54:37;;;;;;;22.10;12.48;;;14.10;99.90;;;;;;5090185;28;19943;-64
2021/07/01 01:57:03;;;;;;;19.90;11.73;;;14.10;99.90;;;;;;5090267;28;20080;-63
2021/07/01 01:59:30;;;;;;;21.85;12.73;;;14.10;99.90;;;;;;5090469;28;20044;-63
2021/07/01 02:01:55;;;;;;;21.05;13.10;;;14.10;99.90;;;;;;5090278;28;20573;-63
2021/07/01 02:04:21;;;;;;;23.05;12.40;;;14.20;99.90;;;;;;5090328;28;20036;-63
2021/07/01 02:06:47;;;;;;;25.52;14.60;;;14.10;99.90;;;;;;5090458;28;20040;-63
2021/07/01 02:09:12;;;;;;;22.38;13.75;;;14.10;99.90;;;;;;5090196;28;20040;-63
2021/07/01 02:11:38;;;;;;;24.08;14.02;;;14.10;99.90;;;;;;5090101;28;20122;-63
2021/07/01 02:14:04;;;;;;;24.35;14.38;;;14.10;99.90;;;;;;5090251;28;20035;-63
2021/07/01 02:16:29;;;;;;;25.92;14.40;;;14.10;99.90;;;;;;5090055;28;20051;-63
2021/07/01 02:18:56;;;;;;;24.67;13.57;;;14.10;99.90;;;;;;5090342;28;20050;-63
2021/07/01 02:21:21;;;;;;;25.20;14.45;;;14.10;99.90;;;;;;5090010;28;20028;-63
2021/07/01 02:23:48;;;;;;;21.67;12.25;;;14.10;99.90;;;;;;5090571;28;20082;-63
2021/07/01 02:26:15;;;;;;;25.50;15.70;;;14.10;99.90;;;;;;5078872;28;20076;-63
2021/07/01 02:28:41;;;;;;;23.23;14.43;;;14.20;99.90;;;;;;5073873;28;20032;-63
2021/07/01 02:31:07;;;;;;;22.63;14.18;;;14.20;99.90;;;;;;5073638;28;20500;-63
2021/07/01 02:33:32;;;;;;;26.65;15.73;;;14.20;99.90;;;;;;5073717;28;20067;-63
2021/07/01 02:35:58;;;;;;;23.08;14.02;;;14.20;99.90;;;;;;5073714;28;20455;-63
2021/07/01 02:38:24;;;;;;;29.85;16.15;;;14.20;99.90;;;;;;5073530;28;20490;-63
2021/07/01 02:40:49;;;;;;;27.92;16.35;;;14.20;99.90;;;;;;5074051;28;20029;-63
2021/07/01 02:43:15;;;;;;;31.40;16.17;;;14.20;99.90;;;;;;5073634;28;20074;-63
2021/07/01 02:45:41;;;;;;;31.33;17.55;;;14.20;99.90;;;;;;5073290;28;20423;-63
2021/07/01 02:48:07;;;;;;;22.83;13.52;;;14.20;99.90;;;;;;5073384;28;20078;-63
2021/07/01 02:50:33;;;;;;;25.38;17.17;;;14.20;99.90;;;;;;5055571;28;20375;-63
2021/07/01 02:52:58;;;;;;;24.55;15.10;;;14.20;99.90;;;;;;5073363;28;20036;-63
2021/07/01 02:55:24;;;;;;;28.40;15.02;;;14.20;99.90;;;;;;5073147;28;20060;-63
2021/07/01 02:57:50;;;;;;;26.60;15.80;;;14.20;99.90;;;;;;5073229;28;20040;-63
2021/07/01 03:00:16;;;;;;;26.77;16.63;;;14.20;99.90;;;;;;5073314;28;20141;-62
2021/07/01 03:02:42;;;;;;;28.98;15.45;;;14.20;99.90;;;;;;5072992;28;20120;-63
2021/07/01 03:05:08;;;;;;;26.10;15.55;;;14.30;99.90;;;;;;5073707;28;20473;-63
2021/07/01 03:07:34;;;;;;;26.08;15.23;;;14.30;99.90;;;;;;5072856;28;20543;-63
2021/07/01 03:10:00;;;;;;;24.88;15.73;;;14.30;99.90;;;;;;5073314;28;20040;-63
2021/07/01 03:12:26;;;;;;;30.17;16.30;;;14.30;99.90;;;;;;5072845;28;20036;-63
2021/07/01 03:14:51;;;;;;;29.25;17.02;;;14.30;99.90;;;;;;5073084;28;20036;-63
2021/07/01 03:17:17;;;;;;;27.75;16.08;;;14.30;99.90;;;;;;5072868;28;20135;-63
2021/07/01 03:19:44;;;;;;;28.38;18.77;;;14.30;99.90;;;;;;5072864;28;20048;-63
2021/07/01 03:22:10;;;;;;;35.42;18.75;;;14.30;99.90;;;;;;5072706;28;20040;-63
2021/07/01 03:24:36;;;;;;;26.83;18.15;;;14.30;99.90;;;;;;5074187;28;20041;-63
2021/07/01 03:27:04;;;;;;;32.08;18.50;;;14.20;99.90;;;;;;5092809;28;20074;-63
2021/07/01 03:29:30;;;;;;;30.80;16.98;;;14.30;99.90;;;;;;5092977;28;20051;-63
2021/07/01 03:31:56;;;;;;;32.28;18.00;;;14.30;99.90;;;;;;5092877;28;20531;-63
2021/07/01 03:34:22;;;;;;;28.38;18.38;;;14.30;99.90;;;;;;5074839;28;20048;-63
2021/07/01 03:36:48;;;;;;;29.23;18.25;;;14.30;99.90;;;;;;5073708;28;20082;-64
2021/07/01 03:39:14;;;;;;;27.80;17.17;;;14.30;99.90;;;;;;5092702;28;20036;-63
2021/07/01 03:41:40;;;;;;;27.20;17.60;;;14.30;99.90;;;;;;5092853;28;20036;-63
2021/07/01 03:44:08;;;;;;;27.50;19.15;;;14.30;99.90;;;;;;5074694;28;20245;-63
2021/07/01 03:46:33;;;;;;;31.95;18.83;;;14.30;99.90;;;;;;5092484;28;20539;-63
2021/07/01 03:48:59;;;;;;;26.42;15.65;;;14.30;99.90;;;;;;5092491;28;20164;-63
2021/07/01 03:51:24;;;;;;;27.80;17.83;;;14.30;99.90;;;;;;5092328;28;20067;-63
2021/07/01 03:53:50;;;;;;;29.77;17.77;;;14.30;99.90;;;;;;5092159;28;20118;-64
2021/07/01 03:56:16;;;;;;;22.95;16.42;;;14.30;99.90;;;;;;5073852;28;20044;-64
2021/07/01 03:58:42;;;;;;;28.25;18.67;;;14.30;99.90;;;;;;5091854;28;20040;-63
2021/07/01 04:01:08;;;;;;;30.65;17.90;;;14.30;99.90;;;;;;5091995;28;20047;-63
2021/07/01 04:03:33;;;;;;;30.42;18.55;;;14.30;99.90;;;;;;5091905;28;20798;-63
2021/07/01 04:05:59;;;;;;;25.27;16.75;;;14.30;99.90;;;;;;5091809;28;20143;-63
2021/07/01 04:08:25;;;;;;;20.48;14.60;;;14.30;99.90;;;;;;5091799;28;20123;-64
2021/07/01 04:10:51;;;;;;;23.83;16.33;;;14.40;99.90;;;;;;5092084;28;20035;-64
2021/07/01 04:13:16;;;;;;;23.70;16.98;;;14.40;99.90;;;;;;5073457;28;20040;-64
2021/07/01 04:15:42;;;;;;;18.90;14.35;;;14.40;99.90;;;;;;5092166;28;20085;-63
2021/07/01 04:18:13;;;;;;;24.15;17.50;;;14.40;99.90;;;;;;5091610;28;20061;-64
2021/07/01 04:20:40;;;;;;;27.65;17.30;;;14.40;99.90;;;;;;5091593;28;20508;-64
2021/07/01 04:23:06;;;;;;;30.30;19.27;;;14.40;99.90;;;;;;5073273;28;20032;-64
2021/07/01 04:25:33;;;;;;;26.45;18.05;;;14.40;99.90;;;;;;5064525;28;20041;-64
2021/07/01 04:27:59;;;;;;;28.27;18.90;;;14.40;99.90;;;;;;5071050;28;20048;-64
2021/07/01 04:30:24;;;;;;;24.75;17.45;;;14.40;99.90;;;;;;5071225;28;20101;-63
2021/07/01 04:32:50;;;;;;;27.88;17.90;;;14.40;99.90;;;;;;5071376;28;20039;-64
2021/07/01 04:35:16;;;;;;;31.40;19.20;;;14.40;99.90;;;;;;5071205;28;20038;-64
2021/07/01 04:37:42;;;;;;;29.17;17.40;;;14.50;99.90;;;;;;5071230;28;20040;-64
2021/07/01 04:40:09;;;;;;;33.47;17.70;;;14.50;99.90;;;;;;5071203;28;20060;-63
2021/07/01 04:42:37;;;;;;;29.67;18.67;;;14.50;99.90;;;;;;5071113;28;20040;-63
2021/07/01 04:45:04;;;;;;;36.47;20.42;;;14.50;99.90;;;;;;5071148;28;20051;-63
2021/07/01 04:47:30;;;;;;;29.60;18.25;;;14.50;99.90;;;;;;5070847;28;20044;-64
2021/07/01 04:49:56;;;;;;;35.67;18.23;;;14.60;99.90;;;;;;5071004;28;20036;-64
2021/07/01 04:52:21;;;;;;;35.60;20.42;;;14.60;99.90;;;;;;5071062;28;20040;-64
2021/07/01 04:54:47;;;;;;;33.47;19.73;;;14.60;99.90;;;;;;5070905;28;20044;-64
2021/07/01 04:57:13;;;;;;;40.83;21.77;;;14.60;99.90;;;;;;5071052;28;20445;-64
2021/07/01 04:59:38;;;;;;;38.05;20.25;;;14.60;99.90;;;;;;5070751;28;20040;-64
2021/07/01 05:02:04;;;;;;;36.35;20.92;;;14.50;99.90;;;;;;5070899;28;20045;-64
2021/07/01 05:04:29;;;;;;;38.30;20.45;;;14.60;99.90;;;;;;5070593;28;20032;-64
2021/07/01 05:06:55;;;;;;;35.80;20.20;;;14.60;99.90;;;;;;5070885;28;20106;-64
2021/07/01 05:09:21;;;;;;;36.15;21.05;;;14.50;99.90;;;;;;5070576;28;20428;-64
2021/07/01 05:11:46;;;;;;;35.20;19.08;;;14.60;99.90;;;;;;5052882;28;20421;-64
2021/07/01 05:14:12;;;;;;;42.90;21.42;;;14.60;99.90;;;;;;5070945;28;20512;-64
2021/07/01 05:16:37;;;;;;;36.80;20.05;;;14.60;99.90;;;;;;5070598;28;20044;-64
2021/07/01 05:19:03;;;;;;;45.95;22.58;;;14.60;99.90;;;;;;5070412;28;20089;-64
2021/07/01 05:21:30;;;;;;;38.58;20.27;;;14.60;99.90;;;;;;5070477;28;20093;-64
2021/07/01 05:23:56;;;;;;;37.72;20.85;;;14.60;99.90;;;;;;5070471;28;20036;-64
2021/07/01 05:26:22;;;;;;;35.97;20.00;;;14.60;99.90;;;;;;5086069;28;20047;-64
2021/07/01 05:28:48;;;;;;;37.70;20.35;;;14.60;99.90;;;;;;5090564;28;20040;-63
2021/07/01 05:31:14;;;;;;;40.58;21.67;;;14.60;99.90;;;;;;5090609;28;20058;-64
2021/07/01 05:33:40;;;;;;;34.72;19.63;;;14.60;99.90;;;;;;5072392;28;20093;-64
2021/07/01 05:36:06;;;;;;;33.58;20.40;;;14.60;99.90;;;;;;5090500;28;20075;-64
2021/07/01 05:38:32;;;;;;;35.65;20.83;;;14.60;99.90;;;;;;5090480;28;20546;-64
2021/07/01 05:40:58;;;;;;;35.65;20.38;;;14.60;99.90;;;;;;5090505;28;20032;-64
2021/07/01 05:43:24;;;;;;;36.42;19.65;;;14.60;99.90;;;;;;5090365;28;20093;-63
2021/07/01 05:45:51;;;;;;;34.53;19.65;;;14.70;99.90;;;;;;5090350;28;20504;-64
2021/07/01 05:48:18;;;;;;;30.73;19.40;;;14.70;99.90;;;;;;5090857;28;20119;-64
2021/07/01 05:53:27;;;;;;;31.45;19.63;;;14.70;99.90;;;;;;5090505;28;20471;-64
2021/07/01 05:55:52;;;;;;;28.13;17.90;;;14.70;99.90;;;;;;5090023;28;20261;-64
2021/07/01 05:58:18;;;;;;;33.75;18.88;;;14.80;99.90;;;;;;5090754;28;20405;-64
2021/07/01 06:00:44;;;;;;;33.92;20.02;;;14.80;99.90;;;;;;5096979;28;20098;-64
2021/07/01 06:03:10;;;;;;;30.83;19.13;;;14.80;99.90;;;;;;5097057;28;20040;-63
2021/07/01 06:05:37;;;;;;;35.50;20.58;;;14.90;99.90;;;;;;5096973;28;20039;-64
2021/07/01 06:08:07;;;;;;;30.20;18.15;;;14.90;99.90;;;;;;5097224;28;20085;-64
2021/07/01 06:10:40;;;;;;;35.00;20.48;;;14.90;99.90;;;;;;5096901;28;20043;-64
2021/07/01 06:13:07;;;;;;;35.75;19.15;;;14.90;99.90;;;;;;5096919;28;20070;-64
2021/07/01 06:15:33;;;;;;;38.20;21.27;;;14.90;99.90;;;;;;5078574;28;20401;-64
2021/07/01 06:18:00;;;;;;;33.05;20.23;;;14.90;99.90;;;;;;5096855;28;20097;-64
2021/07/01 06:20:26;;;;;;;31.63;19.77;;;14.90;99.90;;;;;;5096695;28;20040;-64
2021/07/01 06:22:53;;;;;;;30.08;19.35;;;14.90;99.90;;;;;;5096906;28;20056;-64
2021/07/01 06:25:19;;;;;;;33.75;21.73;;;14.90;99.90;;;;;;5089511;28;20040;-64
2021/07/01 06:27:45;;;;;;;30.63;19.33;;;14.90;99.90;;;;;;5076844;28;20062;-64
2021/07/01 06:30:22;;;;;;;32.22;20.67;;;14.90;99.90;;;;;;5076378;28;20041;-64
2021/07/01 06:32:51;;;;;;;32.25;20.25;;;14.90;99.90;;;;;;5076709;28;20041;-64
2021/07/01 06:35:19;;;;;;;34.25;21.15;;;15.00;99.90;;;;;;5076280;28;20036;-64
2021/07/01 06:37:46;;;;;;;37.10;22.50;;;15.00;99.90;;;;;;5076543;28;20452;-64
2021/07/01 06:40:13;;;;;;;36.88;22.90;;;15.00;99.90;;;;;;5076206;28;20485;-64
2021/07/01 06:42:46;;;;;;;33.05;21.90;;;15.10;99.90;;;;;;5076594;28;20109;-64
2021/07/01 06:45:13;;;;;;;35.08;20.58;;;15.10;99.90;;;;;;5076365;28;20035;-65
2021/07/01 06:47:42;;;;;;;42.15;23.10;;;15.10;99.90;;;;;;5076376;28;20048;-64
2021/07/01 06:50:10;;;;;;;35.83;23.23;;;15.20;99.90;;;;;;5058654;28;20082;-64
2021/07/01 06:52:35;;;;;;;35.13;22.42;;;15.20;99.90;;;;;;5076310;28;20048;-64
2021/07/01 06:55:01;;;;;;;31.52;20.17;;;15.30;99.90;;;;;;5076017;28;20052;-64
2021/07/01 06:57:27;;;;;;;36.47;23.00;;;15.30;99.90;;;;;;5058414;28;20033;-64
2021/07/01 06:59:53;;;;;;;34.35;21.55;;;15.30;99.90;;;;;;5076121;28;20521;-64
2021/07/01 07:02:21;;;;;;;36.33;21.30;;;15.40;99.90;;;;;;5076213;28;20067;-64
2021/07/01 07:04:47;;;;;;;29.48;20.98;;;15.50;99.90;;;;;;5076107;28;20040;-64
2021/07/01 07:07:14;;;;;;;35.63;24.05;;;15.50;99.90;;;;;;5075965;28;20097;-64
2021/07/01 07:09:39;;;;;;;38.88;23.92;;;15.60;99.90;;;;;;5076300;28;20036;-64
2021/07/01 07:12:05;;;;;;;28.83;21.42;;;15.60;99.90;;;;;;5071563;28;20693;-63
2021/07/01 07:14:31;;;;;;;38.55;25.08;;;15.70;99.90;;;;;;5072981;28;20037;-64
2021/07/01 07:16:58;;;;;;;39.05;23.30;;;15.70;99.90;;;;;;5073079;28;20089;-63
2021/07/01 07:19:26;;;;;;;43.00;23.73;;;15.80;99.90;;;;;;5054979;28;20036;-64
2021/07/01 07:21:52;;;;;;;34.97;20.92;;;15.90;99.90;;;;;;5072700;28;20067;-64
2021/07/01 07:24:20;;;;;;;38.13;25.00;;;16.00;99.90;;;;;;5072775;28;20044;-63
2021/07/01 07:26:51;;;;;;;39.17;24.73;;;16.00;99.90;;;;;;5091984;28;20040;-63
2021/07/01 07:29:17;;;;;;;34.20;23.05;;;16.00;99.90;;;;;;5092903;28;20094;-64
2021/07/01 07:31:43;;;;;;;37.60;23.45;;;16.20;99.90;;;;;;5092772;28;20046;-64
2021/07/01 07:34:08;;;;;;;34.05;23.08;;;16.20;99.90;;;;;;5092806;28;20036;-63
2021/07/01 07:36:35;;;;;;;34.33;23.05;;;16.30;99.90;;;;;;5092525;28;20055;-64
2021/07/01 07:39:02;;;;;;;42.55;25.65;;;16.40;99.90;;;;;;5092782;28;20040;-64
2021/07/01 07:41:28;;;;;;;33.67;21.33;;;16.40;99.90;;;;;;5092909;28;20066;-64
2021/07/01 07:43:55;;;;;;;39.80;24.58;;;16.50;99.90;;;;;;5092915;28;20067;-63
2021/07/01 07:46:24;;;;;;;34.33;21.25;;;16.50;99.90;;;;;;5092469;28;20113;-64
2021/07/01 07:48:50;;;;;;;34.10;22.35;;;16.60;99.90;;;;;;5074268;28;20054;-64
2021/07/01 07:51:17;;;;;;;33.00;22.50;;;16.70;99.90;;;;;;5092353;28;20036;-64
2021/07/01 07:53:49;;;;;;;36.22;23.95;;;16.70;99.90;;;;;;5092489;28;20119;-63
2021/07/01 07:56:21;;;;;;;40.47;23.60;;;16.70;99.90;;;;;;5092196;28;20048;-64
2021/07/01 07:58:48;;;;;;;;;;;16.80;99.90;;;;;;5092909;28;20052;-63
2021/07/01 08:01:14;;;;;;;34.75;24.15;;;16.80;99.90;;;;;;5092305;28;19927;-63
2021/07/01 08:03:42;;;;;;;36.03;24.30;;;16.90;99.90;;;;;;5092105;28;20386;-64
2021/07/01 08:06:09;;;;;;;35.40;23.30;;;17.00;99.90;;;;;;5092230;28;20048;-65
2021/07/01 08:08:42;;;;;;;37.05;23.55;;;17.00;99.90;;;;;;5092129;28;20048;-64
2021/07/01 08:11:10;;;;;;;37.28;24.88;;;17.10;99.90;;;;;;5073974;28;20071;-63
2021/07/01 08:13:38;;;;;;;38.28;24.85;;;17.10;99.90;;;;;;5092025;28;20044;-64
2021/07/01 08:16:05;;;;;;;37.33;22.90;;;17.20;99.90;;;;;;5073853;28;20044;-64
2021/07/01 08:18:40;;;;;;;38.60;23.75;;;17.10;99.90;;;;;;5091986;28;20481;-64
2021/07/01 08:21:12;;;;;;;36.22;24.60;;;17.10;99.90;;;;;;5091825;28;20036;-63
2021/07/01 08:23:39;;;;;;;;;;;17.20;99.90;;;;;;5091939;28;20040;-64
2021/07/01 08:26:07;;;;;;;38.08;23.33;;;17.20;99.90;;;;;;5078515;28;19929;-63
2021/07/01 08:28:33;;;;;;;36.67;25.85;;;17.20;99.90;;;;;;5071351;28;20056;-63
2021/07/01 08:31:12;;;;;;;37.17;24.70;;;17.20;99.90;;;;;;5071571;28;20089;-63
2021/07/01 08:33:40;;;;;;;37.25;24.15;;;17.30;99.90;;;;;;5071375;28;20540;-63
2021/07/01 08:36:12;;;;;;;39.67;24.98;;;17.30;99.90;;;;;;5071531;28;20090;-63
2021/07/01 08:38:40;;;;;;;46.28;25.17;;;17.30;99.90;;;;;;5071180;28;20397;-63
2021/07/01 08:41:16;;;;;;;39.67;26.00;;;17.20;99.90;;;;;;5071284;28;20045;-64
2021/07/01 08:43:52;;;;;;;34.90;24.20;;;17.20;99.90;;;;;;5071595;28;20045;-63
2021/07/01 08:46:22;;;;;;;38.20;24.48;;;17.20;99.90;;;;;;5071311;28;20048;-64
2021/07/01 08:49:01;;;;;;;37.03;23.92;;;17.20;99.90;;;;;;5070988;28;20485;-63
2021/07/01 08:51:43;;;;;;;36.00;24.50;;;17.30;99.90;;;;;;5071206;28;20040;-63
2021/07/01 08:54:15;;;;;;;38.88;27.02;;;17.30;99.90;;;;;;5071066;28;20181;-63
2021/07/01 08:56:42;;;;;;;44.35;26.75;;;17.30;99.90;;;;;;5071183;28;20045;-63
2021/07/01 08:59:09;;;;;;;45.00;25.88;;;17.20;99.90;;;;;;5070866;28;20041;-63
2021/07/01 09:01:40;;;;;;;38.88;24.05;;;17.30;99.90;;;;;;5070933;28;20119;-64
2021/07/01 09:04:12;;;;;;;40.47;26.43;;;17.30;99.90;;;;;;5071136;28;20037;-63
2021/07/01 09:06:38;;;;;;;35.10;24.75;;;17.30;99.90;;;;;;5070785;28;20299;-63
2021/07/01 09:11:41;;;;;;;38.65;26.08;;;17.30;99.90;;;;;;5049570;28;20469;-67
2021/07/01 09:14:09;;;;;;;31.95;22.52;;;17.40;99.90;;;;;;5050603;28;20349;-68
2021/07/01 09:16:37;;;;;;;39.03;26.23;;;17.50;99.90;;;;;;5050659;28;20072;-67
2021/07/01 09:19:03;;;;;;;34.90;24.92;;;17.60;99.90;;;;;;5050442;28;20036;-67
2021/07/01 09:21:29;;;;;;;37.03;26.45;;;17.60;99.90;;;;;;5050672;28;20056;-67
2021/07/01 09:23:59;;;;;;;37.10;26.95;;;17.60;99.90;;;;;;5049434;28;20072;-68
2021/07/01 09:26:26;;;;;;;36.50;24.77;;;17.70;99.90;;;;;;5050814;28;20091;-67
2021/07/01 09:28:53;;;;;;;32.35;23.88;;;17.70;99.90;;;;;;5050322;28;20072;-67
2021/07/01 09:31:21;;;;;;;36.30;26.42;;;17.70;99.90;;;;;;5050483;28;20123;-67
2021/07/01 09:33:49;;;;;;;31.90;23.98;;;17.80;99.90;;;;;;5049740;28;20337;-67
2021/07/01 09:36:18;;;;;;;38.45;26.50;;;17.80;99.90;;;;;;5050414;28;20091;-67
2021/07/01 09:38:46;;;;;;;34.40;24.80;;;17.80;99.90;;;;;;5050129;28;20371;-67
2021/07/01 09:41:13;;;;;;;38.10;24.50;;;17.80;99.90;;;;;;5050425;28;20075;-68
2021/07/01 09:43:41;;;;;;;39.03;25.73;;;17.80;99.90;;;;;;5050076;28;20048;-67
2021/07/01 09:46:12;;;;;;;37.35;24.73;;;17.90;99.90;;;;;;5050147;28;20402;-67
2021/07/01 09:48:44;;;;;;;37.75;24.90;;;18.00;99.90;;;;;;5050099;28;20041;-67
2021/07/01 09:51:10;;;;;;;37.50;25.85;;;18.20;99.90;;;;;;5050283;28;20040;-67
2021/07/01 09:53:38;;;;;;;30.83;22.55;;;18.30;99.90;;;;;;5050009;28;20047;-67
2021/07/01 09:56:05;;;;;;;33.28;24.83;;;18.40;99.90;;;;;;5050129;28;20063;-68
2021/07/01 09:58:36;;;;;;;34.03;24.05;;;18.50;99.90;;;;;;5050072;28;20033;-67
2021/07/01 10:01:01;;;;;;;31.95;21.98;;;18.40;99.90;;;;;;5050094;28;20441;-67
2021/07/01 10:03:27;;;;;;;32.17;22.95;;;18.60;99.90;;;;;;5049964;28;20120;-67
2021/07/01 10:05:53;;;;;;;37.67;24.52;;;18.60;99.90;;;;;;5049970;28;20108;-67
2021/07/01 10:08:19;;;;;;;33.03;22.50;;;18.60;99.90;;;;;;5049875;28;20059;-67
2021/07/01 10:10:47;;;;;;;32.22;24.02;;;18.60;99.90;;;;;;5049717;28;20049;-68
2021/07/01 10:13:13;;;;;;;33.70;24.13;;;18.60;99.90;;;;;;5050335;28;20070;-68
2021/07/01 10:15:41;;;;;;;35.85;23.98;;;18.60;99.90;;;;;;5049936;28;20056;-69
2021/07/01 10:18:12;;;;;;;36.55;24.45;;;18.60;99.90;;;;;;5048676;28;20041;-68
2021/07/01 10:20:42;;;;;;;30.83;24.15;;;18.70;99.90;;;;;;5049938;28;20117;-68
2021/07/01 10:23:22;;;;;;;28.95;23.88;;;18.80;99.90;;;;;;5049873;28;20479;-68
2021/07/01 10:25:53;;;;;;;29.00;23.88;;;18.80;99.90;;;;;;5049846;28;20116;-68
2021/07/01 10:28:22;;;;;;;35.78;25.98;;;18.80;99.90;;;;;;5050158;28;20102;-67
2021/07/01 10:31:05;;;;;;;30.90;22.90;;;18.70;99.90;;;;;;5049902;28;20037;-67
2021/07/01 10:33:39;;;;;;;32.05;23.90;;;18.80;99.90;;;;;;5049713;28;20041;-68
2021/07/01 10:36:06;;;;;;;34.78;24.70;;;18.90;99.90;;;;;;5049596;28;20047;-68
2021/07/01 10:38:46;;;;;;;33.15;23.10;;;18.80;99.90;;;;;;5049885;28;20041;-67
2021/07/01 10:41:25;;;;;;;29.85;22.88;;;18.80;99.90;;;;;;5049998;28;20037;-67
2021/07/01 10:43:50;;;;;;;30.30;23.00;;;18.90;99.90;;;;;;5049605;28;20052;-68
2021/07/01 10:46:16;;;;;;;31.02;23.25;;;18.80;99.90;;;;;;5052304;28;20045;-68
2021/07/01 10:48:53;;;;;;;32.30;24.05;;;18.70;99.90;;;;;;5052159;28;20044;-67
2021/07/01 10:51:21;;;;;;;28.10;21.67;;;18.80;99.90;;;;;;5053413;28;20037;-67
2021/07/01 10:53:47;;;;;;;33.78;24.13;;;18.70;99.90;;;;;;5052141;28;20421;-68
2021/07/01 10:56:18;;;;;;;32.63;23.13;;;18.80;99.90;;;;;;5053343;28;20043;-67
2021/07/01 10:58:52;;;;;;;32.22;23.40;;;18.90;99.90;;;;;;5053352;28;20534;-68
2021/07/01 11:01:26;;;;;;;32.15;24.38;;;19.00;99.90;;;;;;5053266;28;20040;-67
2021/07/01 11:04:14;;;;;;;28.15;22.30;;;19.10;99.90;;;;;;5053281;28;20546;-68
2021/07/01 11:06:42;;;;;;;26.35;21.95;;;19.10;99.90;;;;;;5053520;28;20183;-67
2021/07/01 11:09:11;;;;;;;29.40;21.17;;;19.40;99.90;;;;;;5053092;28;20052;-68
2021/07/01 11:11:39;;;;;;;26.17;21.42;;;19.70;99.90;;;;;;5053283;28;20045;-68
2021/07/01 11:14:10;;;;;;;28.05;20.63;;;19.90;99.90;;;;;;5052959;28;20126;-68
2021/07/01 11:16:38;;;;;;;28.15;20.60;;;20.30;99.90;;;;;;5052888;28;20049;-68
2021/07/01 11:19:05;;;;;;;25.70;20.38;;;20.60;99.90;;;;;;5053047;28;20052;-67
2021/07/01 11:21:30;;;;;;;28.02;18.88;;;20.80;99.90;;;;;;5051765;28;20033;-68
2021/07/01 11:24:31;;;;;;;18.23;16.30;;;21.10;99.90;;;;;;5052901;28;20052;-68
2021/07/01 11:27:02;;;;;;;22.58;18.27;;;21.30;99.90;;;;;;4955239;28;20511;-67
2021/07/01 11:29:39;;;;;;;20.13;18.03;;;21.20;99.90;;;;;;5022193;28;20128;-68
2021/07/01 11:32:20;;;;;;;21.80;18.38;;;21.20;99.90;;;;;;5032846;28;20064;-68
2021/07/01 11:34:49;;;;;;;24.27;19.85;;;21.00;99.90;;;;;;5032626;28;20033;-68
2021/07/01 11:37:30;;;;;;;21.55;17.52;;;21.00;99.90;;;;;;5032622;28;20041;-66
2021/07/01 11:39:56;;;;;;;20.17;17.50;;;21.00;99.90;;;;;;5032677;28;20095;-68
2021/07/01 11:42:23;;;;;;;22.10;17.88;;;20.90;99.90;;;;;;5014843;28;20045;-68
2021/07/01 11:44:50;;;;;;;22.30;17.92;;;21.00;99.90;;;;;;5014969;28;20041;-68
2021/07/01 11:47:16;;;;;;;19.23;15.93;;;21.30;99.90;;;;;;5032415;28;20045;-68
2021/07/01 11:49:42;;;;;;;21.63;18.63;;;21.50;99.90;;;;;;5032567;28;20451;-68
2021/07/01 11:52:08;;;;;;;21.35;17.52;;;21.60;99.90;;;;;;5032294;28;20049;-68
2021/07/01 11:54:33;;;;;;;18.95;16.83;;;21.40;99.90;;;;;;5032410;28;20045;-68
2021/07/01 11:57:00;;;;;;;20.67;16.38;;;21.40;99.90;;;;;;5031636;28;20041;-68
2021/07/01 11:59:30;;;;;;;16.50;14.73;;;21.20;99.90;;;;;;5032413;28;20045;-68
2021/07/01 12:01:58;;;;;;;16.58;14.25;;;21.50;99.90;;;;;;5014500;28;20049;-68
2021/07/01 12:04:28;;;;;;;16.98;15.13;;;21.40;99.90;;;;;;5032280;28;20112;-68
2021/07/01 12:07:28;;;;;;;17.58;15.32;;;21.20;99.90;;;;;;5014399;28;20115;-67
2021/07/01 12:09:55;;;;;;;17.33;15.25;;;20.90;99.90;;;;;;5032071;28;20505;-68
2021/07/01 12:12:27;;;;;;;16.25;14.27;;;20.90;99.90;;;;;;5032040;28;20148;-67
2021/07/01 12:15:06;;;;;;;16.80;14.20;;;20.70;99.90;;;;;;5032082;28;20049;-68
2021/07/01 12:17:50;;;;;;;16.00;14.35;;;20.60;99.90;;;;;;5031993;28;20049;-68
2021/07/01 12:20:33;;;;;;;17.00;14.35;;;20.60;99.90;;;;;;5032282;28;20041;-68
2021/07/01 12:23:09;;;;;;;19.85;16.13;;;20.60;99.90;;;;;;5031888;28;20044;-68
2021/07/01 12:25:37;;;;;;;17.27;15.18;;;20.50;99.90;;;;;;5040716;28;20044;-68
2021/07/01 12:31:04;;;;;;;19.48;15.43;;;20.30;99.90;;;;;;5051864;28;20037;-68
2021/07/01 12:33:45;;;;;;;17.92;15.55;;;20.50;99.90;;;;;;5051630;28;20044;-68
2021/07/01 12:36:12;;;;;;;16.30;14.60;;;20.60;99.90;;;;;;5051490;28;20041;-67
2021/07/01 12:38:41;;;;;;;16.77;15.07;;;20.80;99.90;;;;;;5051301;28;20041;-68
2021/07/01 12:41:10;;;;;;;17.05;15.25;;;20.90;99.90;;;;;;5051248;28;20041;-67